Terminal Aerodrome Forecast
Issued by NWS Sioux Falls, SD

Home | Current Version | Previous Version | Graphics & Text | Print | Product List | Glossary On
Versions: 1 2 3 4 5 6 7 8 9 10 11 12
000
FTUS43 KFSD 130520
TAFFSD
TAF
KFSD 130520Z 1306/1406 VRB03KT P6SM SKC
     FM131200 18007KT P6SM SKC
     FM131500 18010G18KT P6SM SKC
     FM131700 19015G25KT P6SM FEW040
     FM140000 18008KT P6SM FEW040=

USA.gov is the U.S. government's official web portal to all federal, state and local government web resources and services.